Terminal Aerodrome Forecast
Issued by NWS Charleston, WV

Current Version | Previous Version | Text Only | Print | Product List | Glossary Off
Versions: 1 2 3 4 5 6 7 8 9 10 11 12 13 14 15 16 17 18 19 20 21 22 23 24 25 26 27 28

241
FTUS41 KRLX 030900 AAA
TAFBKW
TAF AMD
KBKW 030900Z 0309/0406 31009KT P6SM OVC020
     FM031100 31007KT P6SM OVC015
     FM031600 31007KT P6SM BKN020
     FM031900 31007KT P6SM BKN035
     FM040100 VRB03KT P6SM BKN040=

USA.gov is the U.S. government's official web portal to all federal, state and local government web resources and services.